Terminal Aerodrome Forecast
Issued by NWS Blacksburg, VA

Home | Current Version | Previous Version | Text Only | Print | Product List | Glossary On
Versions: 1 2 3 4 5 6 7 8 9 10 11 12
000
FTUS41 KRNK 231723
TAFROA
TAF
KROA 231723Z 2318/2418 29012G22KT P6SM SKC
     FM240000 32010KT P6SM SKC
     FM240600 VRB03KT P6SM SKC
     FM241500 15005KT P6SM SCT250=

USA.gov is the U.S. government's official web portal to all federal, state and local government web resources and services.